createdAt,value
2023-02-16T00:02:18.375Z,101459.13
2023-02-16T00:04:51.075Z,101456.02
2023-02-16T00:07:23.599Z,101452.13
2023-02-16T00:09:56.078Z,101435.86
2023-02-16T00:12:46.088Z,101455.50
2023-02-16T00:15:21.641Z,101459.07
2023-02-16T00:17:56.145Z,101456.73
2023-02-16T00:20:30.272Z,101451.80
2023-02-16T00:23:02.706Z,101454.23
2023-02-16T00:25:35.172Z,101454.92
2023-02-16T00:28:14.289Z,101450.54
2023-02-16T00:30:50.765Z,101444.36
2023-02-16T00:33:24.489Z,101446.27
2023-02-16T00:35:57.520Z,101445.98
2023-02-16T00:38:30.849Z,101439.77
2023-02-16T00:41:04.736Z,101438.98
2023-02-16T00:43:38.758Z,101437.92
2023-02-16T00:46:11.956Z,101434.60
2023-02-16T00:48:45.372Z,101437.51
2023-02-16T00:51:25.762Z,101434.14
2023-02-16T00:53:58.820Z,101435.86
2023-02-16T00:56:33.253Z,101431.11
2023-02-16T00:59:07.291Z,101430.11
2023-02-16T01:01:43.891Z,101431.52
2023-02-16T01:04:30.048Z,101426.27
2023-02-16T01:07:24.928Z,101419.41
2023-02-16T01:10:15.379Z,101416.56
2023-02-16T01:12:47.954Z,101412.52
2023-02-16T01:15:23.663Z,101408.48
2023-02-16T01:17:57.625Z,101409.71
2023-02-16T01:20:30.572Z,101406.74
2023-02-16T01:23:03.262Z,101400.41
2023-02-16T01:25:36.813Z,101401.78
2023-02-16T01:28:21.001Z,101396.60
2023-02-16T01:30:54.595Z,101396.94
2023-02-16T01:33:28.325Z,101389.91
2023-02-16T01:36:01.137Z,101388.30
2023-02-16T01:38:34.834Z,101387.08
2023-02-16T01:41:22.751Z,101384.05
2023-02-16T01:43:59.853Z,101383.54
2023-02-16T01:46:40.861Z,101382.45
2023-02-16T01:49:19.413Z,101381.98
2023-02-16T01:51:58.068Z,101383.44
2023-02-16T01:54:37.183Z,101376.25
2023-02-16T01:57:24.482Z,101379.13
2023-02-16T02:00:16.561Z,101377.27
2023-02-16T02:02:53.943Z,101369.73
2023-02-16T02:05:38.572Z,101368.89
2023-02-16T02:08:27.267Z,101365.71
2023-02-16T02:11:09.672Z,101361.78
2023-02-16T02:13:47.124Z,101357.98
2023-02-16T02:16:25.045Z,101358.77
2023-02-16T02:18:58.045Z,101357.90
2023-02-16T02:22:09.531Z,101355.80
2023-02-16T02:25:22.557Z,101355.65
2023-02-16T02:27:59.160Z,101359.83
2023-02-16T02:30:47.459Z,101356.67
2023-02-16T02:33:48.538Z,101355.95
2023-02-16T02:36:30.091Z,101361.82
2023-02-16T02:39:15.068Z,101338.46
2023-02-16T02:42:06.702Z,101357.75
2023-02-16T02:44:53.078Z,101355.39
2023-02-16T02:47:37.980Z,101363.23
2023-02-16T02:50:22.300Z,101363.31
2023-02-16T02:52:55.080Z,101356.83
2023-02-16T02:55:46.240Z,101328.34
2023-02-16T02:58:39.680Z,101356.39
2023-02-16T03:01:15.043Z,101356.05
2023-02-16T03:03:51.227Z,101356.70
2023-02-16T03:06:27.898Z,101348.10
2023-02-16T03:09:06.453Z,101347.33
2023-02-16T03:11:56.698Z,101346.10
2023-02-16T03:14:34.886Z,101312.75
2023-02-16T03:17:30.357Z,101345.75
2023-02-16T03:20:20.457Z,101347.38
2023-02-16T03:23:10.873Z,101347.50
2023-02-16T03:26:01.348Z,101345.78
2023-02-16T03:28:54.397Z,101344.44
2023-02-16T03:31:32.371Z,101356.97
2023-02-16T03:34:06.459Z,101361.69
2023-02-16T03:36:42.254Z,101363.64
2023-02-16T03:39:15.402Z,101368.66
2023-02-16T03:41:52.352Z,101360.57
2023-02-16T03:44:25.116Z,101361.61
2023-02-16T03:46:57.708Z,101362.89
2023-02-16T03:49:30.098Z,101352.36
2023-02-16T03:52:02.524Z,101351.55
2023-02-16T03:54:34.937Z,101348.45
2023-02-16T03:57:07.788Z,101347.42
2023-02-16T03:59:44.395Z,101341.34
2023-02-16T04:02:16.905Z,101327.88
2023-02-16T04:04:49.295Z,101349.44
2023-02-16T04:07:22.271Z,101349.65
2023-02-16T04:09:54.718Z,101352.64
2023-02-16T04:12:39.757Z,101351.94
2023-02-16T04:15:15.216Z,101350.98
2023-02-16T04:17:48.448Z,101342.73
2023-02-16T04:20:22.812Z,101336.90
2023-02-16T04:22:55.582Z,101333.14
2023-02-16T04:25:28.698Z,101331.54
2023-02-16T04:28:01.526Z,101325.04
2023-02-16T04:30:34.668Z,101325.02
2023-02-16T04:33:07.346Z,101329.64
2023-02-16T04:35:44.365Z,101324.92
2023-02-16T04:38:17.278Z,101322.48
2023-02-16T04:40:49.685Z,101321.78
2023-02-16T04:43:22.092Z,101317.58
2023-02-16T04:45:54.571Z,101316.33
2023-02-16T04:48:27.031Z,101320.71
2023-02-16T04:50:59.413Z,101327.20
2023-02-16T04:53:31.851Z,101322.92
2023-02-16T04:56:04.452Z,101315.75
2023-02-16T04:58:37.131Z,101310.18
2023-02-16T05:01:12.934Z,101305.09
2023-02-16T05:03:45.666Z,101289.67
2023-02-16T05:06:18.380Z,101307.77
2023-02-16T05:08:51.787Z,101287.88
2023-02-16T05:11:44.550Z,101311.02
2023-02-16T05:14:39.774Z,101313.92
2023-02-16T05:17:14.566Z,101315.78
2023-02-16T05:19:49.800Z,101316.55
2023-02-16T05:22:22.814Z,101311.30
2023-02-16T05:24:55.405Z,101316.98
2023-02-16T05:27:29.236Z,101314.48
2023-02-16T05:30:02.602Z,101316.71
2023-02-16T05:32:35.445Z,101315.81
2023-02-16T05:35:10.467Z,101314.68
2023-02-16T05:37:43.090Z,101316.64
2023-02-16T05:40:16.580Z,101322.98
2023-02-16T05:42:49.047Z,101323.33
2023-02-16T05:45:21.637Z,101326.39
2023-02-16T05:47:55.002Z,101330.02
2023-02-16T05:50:27.409Z,101314.06
2023-02-16T05:53:04.689Z,101333.30
2023-02-16T05:55:37.251Z,101334.41
2023-02-16T05:58:09.991Z,101329.13
2023-02-16T06:00:43.644Z,101335.21
2023-02-16T06:03:16.113Z,101334.34
2023-02-16T06:05:53.546Z,101329.67
2023-02-16T06:08:28.618Z,101328.10
2023-02-16T06:10:59.581Z,101323.96
2023-02-16T06:13:31.979Z,101323.81
2023-02-16T06:16:04.994Z,101327.21
2023-02-16T06:18:37.483Z,101327.58
2023-02-16T06:21:10.342Z,101327.27
2023-02-16T06:23:44.534Z,101311.23
2023-02-16T06:26:17.128Z,101329.27
2023-02-16T06:28:52.458Z,101323.52
2023-02-16T06:31:28.204Z,101325.52
2023-02-16T06:34:04.017Z,101326.24
2023-02-16T06:36:36.646Z,101330.50
2023-02-16T06:39:11.157Z,101336.63
2023-02-16T06:41:45.046Z,101337.52
2023-02-16T06:44:18.419Z,101334.41
2023-02-16T06:46:51.230Z,101334.94
2023-02-16T06:49:27.365Z,101333.61
2023-02-16T06:52:00.917Z,101327.23
2023-02-16T06:54:33.327Z,101324.61
2023-02-16T06:57:05.880Z,101318.83
2023-02-16T06:59:41.240Z,101317.42
2023-02-16T07:02:14.458Z,101315.30
2023-02-16T07:04:47.154Z,101312.33
2023-02-16T07:07:19.517Z,101308.23
2023-02-16T07:09:51.964Z,101302.70
2023-02-16T07:12:24.443Z,101299.77
2023-02-16T07:14:56.922Z,101298.63
2023-02-16T07:17:29.444Z,101296.11
2023-02-16T07:20:02.009Z,101296.27
2023-02-16T07:22:34.698Z,101303.11
2023-02-16T07:25:07.786Z,101304.71
2023-02-16T07:27:40.247Z,101299.48
2023-02-16T07:30:16.627Z,101295.81
2023-02-16T07:32:49.907Z,101294.02
2023-02-16T07:35:23.014Z,101298.09
2023-02-16T07:37:55.587Z,101308.73
2023-02-16T07:40:28.392Z,101309.83
2023-02-16T07:43:04.155Z,101308.98
2023-02-16T07:45:36.831Z,101301.11
2023-02-16T07:48:09.614Z,101299.82
2023-02-16T07:50:42.388Z,101303.48
2023-02-16T07:53:15.101Z,101306.39
2023-02-16T07:55:48.319Z,101287.71
2023-02-16T07:58:28.449Z,101303.90
2023-02-16T08:01:10.398Z,101306.91
2023-02-16T08:03:43.980Z,101300.02
2023-02-16T08:06:16.848Z,101305.31
2023-02-16T08:08:49.864Z,101302.05
2023-02-16T08:11:25.020Z,101298.20
2023-02-16T08:13:59.561Z,101300.49
2023-02-16T08:16:30.634Z,101304.30
2023-02-16T08:19:04.588Z,101301.66
2023-02-16T08:21:37.338Z,101306.52
2023-02-16T08:24:13.831Z,101308.22
2023-02-16T08:26:49.967Z,101306.54
2023-02-16T08:29:23.601Z,101311.89
2023-02-16T08:31:56.894Z,101297.84
2023-02-16T08:34:31.666Z,101317.30
2023-02-16T08:37:04.679Z,101319.55
2023-02-16T08:39:37.194Z,101316.67
2023-02-16T08:42:13.178Z,101313.89
2023-02-16T08:44:46.442Z,101315.96
2023-02-16T08:47:20.468Z,101315.30
2023-02-16T08:49:52.990Z,101311.08
2023-02-16T08:52:25.493Z,101306.88
2023-02-16T08:54:58.023Z,101311.46
2023-02-16T08:57:30.384Z,101315.63
2023-02-16T09:00:20.704Z,101318.73
2023-02-16T09:02:53.138Z,101319.86
2023-02-16T09:05:26.364Z,101321.65
2023-02-16T09:07:58.952Z,101316.49
2023-02-16T09:10:31.480Z,101320.95
2023-02-16T09:13:03.911Z,101322.61
2023-02-16T09:15:38.229Z,101326.40
2023-02-16T09:18:12.387Z,101336.59
2023-02-16T09:20:47.097Z,101336.63
2023-02-16T09:23:22.079Z,101315.47
2023-02-16T09:25:54.547Z,101339.39
2023-02-16T09:28:27.515Z,101341.02
2023-02-16T09:31:00.135Z,101346.05
2023-02-16T09:33:32.764Z,101326.54
2023-02-16T09:36:09.753Z,101342.74
2023-02-16T09:38:43.712Z,101345.38
2023-02-16T09:41:27.655Z,101342.14
2023-02-16T09:44:07.585Z,101336.00
2023-02-16T09:46:42.117Z,101341.56
2023-02-16T09:49:25.364Z,101331.52
2023-02-16T09:52:04.183Z,101327.08
2023-02-16T09:54:47.241Z,101328.55
2023-02-16T09:57:29.247Z,101330.94
2023-02-16T10:00:08.628Z,101328.48
2023-02-16T10:02:51.996Z,101310.25
2023-02-16T10:05:32.624Z,101322.34
2023-02-16T10:08:09.625Z,101317.23
2023-02-16T10:10:50.541Z,101307.00
2023-02-16T10:13:33.130Z,101327.64
2023-02-16T10:16:12.943Z,101324.08
2023-02-16T10:18:50.518Z,101319.17
2023-02-16T10:21:29.543Z,101313.02
2023-02-16T10:24:05.122Z,101313.16
2023-02-16T10:26:41.948Z,101313.32
2023-02-16T10:29:17.467Z,101313.92
2023-02-16T10:32:00.709Z,101308.66
2023-02-16T10:34:48.835Z,101307.80
2023-02-16T10:37:37.803Z,101303.16
2023-02-16T10:40:29.482Z,101303.84
2023-02-16T10:43:12.807Z,101295.92
2023-02-16T10:45:52.501Z,101296.57
2023-02-16T10:48:27.297Z,101296.58
2023-02-16T10:51:05.391Z,101289.10
2023-02-16T10:53:45.988Z,101290.91
2023-02-16T10:56:38.533Z,101290.83
2023-02-16T10:59:17.880Z,101272.91
2023-02-16T11:01:52.415Z,101281.98
2023-02-16T11:04:37.930Z,101282.25
2023-02-16T11:07:12.544Z,101279.15
2023-02-16T11:09:46.773Z,101281.04
2023-02-16T11:12:28.161Z,101277.66
2023-02-16T11:15:06.328Z,101280.23
2023-02-16T11:17:52.607Z,101279.91
2023-02-16T11:20:34.449Z,101258.82
2023-02-16T11:23:27.031Z,101264.30
2023-02-16T11:26:03.287Z,101268.63
2023-02-16T11:28:39.249Z,101263.20
2023-02-16T11:31:21.086Z,101261.48
2023-02-16T11:34:05.820Z,101262.55
2023-02-16T11:36:39.307Z,101265.41
2023-02-16T11:39:21.715Z,101261.33
2023-02-16T11:41:57.007Z,101270.88
2023-02-16T11:44:33.712Z,101265.05
2023-02-16T11:47:08.415Z,101262.47
2023-02-16T11:49:43.331Z,101266.23
2023-02-16T11:52:32.699Z,101263.60
2023-02-16T11:55:06.145Z,101260.59
2023-02-16T11:57:39.141Z,101261.60
2023-02-16T12:00:17.140Z,101241.27
2023-02-16T12:03:21.702Z,101259.00
2023-02-16T12:06:09.573Z,101257.45
2023-02-16T12:08:59.177Z,101256.59
2023-02-16T12:11:45.249Z,101255.33
2023-02-16T12:14:30.596Z,101251.73
2023-02-16T12:17:14.558Z,101250.63
2023-02-16T12:19:49.806Z,101245.73
2023-02-16T12:22:35.295Z,101240.56
2023-02-16T12:25:23.863Z,101230.13
2023-02-16T12:28:05.206Z,101226.33
2023-02-16T12:30:50.030Z,101228.11
2023-02-16T12:33:43.654Z,101226.18
2023-02-16T12:36:39.523Z,101223.31
2023-02-16T12:39:23.399Z,101217.02
2023-02-16T12:42:14.509Z,101221.52
2023-02-16T12:44:50.909Z,101219.17
2023-02-16T12:47:30.472Z,101207.25
2023-02-16T12:50:05.866Z,101220.27
2023-02-16T12:52:42.959Z,101212.09
2023-02-16T12:55:23.296Z,101208.17
2023-02-16T12:58:04.255Z,101211.59
2023-02-16T13:00:46.645Z,101211.48
2023-02-16T13:03:34.114Z,101205.32
2023-02-16T13:06:25.127Z,101210.68
2023-02-16T13:09:04.802Z,101204.10
2023-02-16T13:11:41.446Z,101188.20
2023-02-16T13:14:21.991Z,101192.48
2023-02-16T13:16:59.184Z,101193.81
2023-02-16T13:19:32.251Z,101187.17
2023-02-16T13:22:33.081Z,101188.23
2023-02-16T13:25:29.534Z,101186.23
2023-02-16T13:28:15.274Z,101179.02
2023-02-16T13:30:58.868Z,101179.87
2023-02-16T13:33:52.880Z,101170.88
2023-02-16T13:36:40.371Z,101170.37
2023-02-16T13:39:40.897Z,101167.27
2023-02-16T13:42:40.933Z,101169.86
2023-02-16T13:45:19.818Z,101146.98
2023-02-16T13:47:55.712Z,101164.97
2023-02-16T13:50:33.496Z,101164.63
2023-02-16T13:53:19.702Z,101164.90
2023-02-16T13:56:12.386Z,101168.70
2023-02-16T13:58:45.062Z,101166.74
2023-02-16T14:01:43.255Z,101163.27
2023-02-16T14:04:53.431Z,101156.15
2023-02-16T14:07:38.431Z,101152.60
2023-02-16T14:10:15.813Z,101151.02
2023-02-16T14:12:50.051Z,101148.62
2023-02-16T14:15:23.415Z,101155.29
2023-02-16T14:17:56.013Z,101154.23
2023-02-16T14:20:33.023Z,101156.70
2023-02-16T14:23:07.363Z,101151.76
2023-02-16T14:25:41.867Z,101150.78
2023-02-16T14:28:49.224Z,101153.70
2023-02-16T14:31:25.490Z,101153.98
2023-02-16T14:34:06.718Z,101148.38
2023-02-16T14:37:27.835Z,101150.63
2023-02-16T14:40:15.848Z,101153.12
2023-02-16T14:42:56.822Z,101154.76
2023-02-16T14:46:14.865Z,101154.85
2023-02-16T14:49:23.942Z,101153.27
2023-02-16T14:52:37.133Z,101150.80
2023-02-16T14:55:30.597Z,101147.51
2023-02-16T14:58:14.365Z,101147.83
2023-02-16T15:00:51.892Z,101136.70
2023-02-16T15:03:26.962Z,101141.95
2023-02-16T15:06:03.959Z,101141.18
2023-02-16T15:08:40.470Z,101139.14
2023-02-16T15:11:23.186Z,101135.55
2023-02-16T15:13:55.815Z,101123.87
2023-02-16T15:16:28.758Z,101137.16
2023-02-16T15:19:06.074Z,101120.09
2023-02-16T15:21:39.498Z,101131.77
2023-02-16T15:24:24.767Z,101133.17
2023-02-16T15:27:01.771Z,101131.81
2023-02-16T15:29:34.213Z,101134.47
2023-02-16T15:32:08.906Z,101134.36
2023-02-16T15:34:41.193Z,101135.11
2023-02-16T15:37:30.171Z,101118.55
2023-02-16T15:40:25.310Z,101137.63
2023-02-16T15:42:57.528Z,101133.85
2023-02-16T15:45:37.995Z,101136.77
2023-02-16T15:49:09.604Z,101141.01
2023-02-16T15:52:52.878Z,101133.11
2023-02-16T16:00:05.133Z,101132.33
2023-02-16T16:03:58.770Z,101130.08
2023-02-16T16:07:06.710Z,101128.41
2023-02-16T16:11:00.856Z,101125.16
2023-02-16T16:13:46.630Z,101108.80
2023-02-16T16:16:22.933Z,101122.98
2023-02-16T16:19:08.476Z,101119.43
2023-02-16T16:21:52.415Z,101121.89
2023-02-16T16:24:38.577Z,101121.25
2023-02-16T16:30:32.642Z,101128.96
2023-02-16T16:33:15.034Z,101129.08
2023-02-16T16:35:51.706Z,101131.61
2023-02-16T16:38:32.037Z,101117.90
2023-02-16T16:41:30.567Z,101131.75
2023-02-16T16:44:12.462Z,101133.85
2023-02-16T16:46:48.663Z,101131.59
2023-02-16T16:49:31.452Z,101125.80
2023-02-16T16:52:39.027Z,101123.71
2023-02-16T16:55:29.616Z,101121.06
2023-02-16T16:58:08.598Z,101106.06
2023-02-16T17:00:43.166Z,101119.01
2023-02-16T17:03:41.913Z,101117.60
2023-02-16T17:06:15.414Z,101111.10
2023-02-16T17:08:48.501Z,101108.56
2023-02-16T17:11:28.793Z,101106.79
2023-02-16T17:14:10.607Z,101116.73
2023-02-16T17:16:49.707Z,101115.50
2023-02-16T17:19:29.448Z,101115.92
2023-02-16T17:22:02.400Z,101120.30
2023-02-16T17:25:04.603Z,101125.67
2023-02-16T17:28:07.623Z,101095.02
2023-02-16T17:30:49.097Z,101134.22
2023-02-16T17:33:22.544Z,101131.74
2023-02-16T17:35:59.198Z,101128.02
2023-02-16T17:38:34.653Z,101124.77
2023-02-16T17:41:22.123Z,101121.63
2023-02-16T17:43:59.513Z,101118.95
2023-02-16T17:46:37.274Z,101121.11
2023-02-16T17:49:22.450Z,101123.50
2023-02-16T17:51:59.132Z,101122.05
2023-02-16T17:54:41.329Z,101120.70
2023-02-16T17:57:20.437Z,101121.48
2023-02-16T17:59:54.415Z,101119.00
2023-02-16T18:02:27.730Z,101118.31
2023-02-16T18:05:01.395Z,101119.63
2023-02-16T18:08:03.907Z,101123.02
2023-02-16T18:10:41.858Z,101126.33
2023-02-16T18:13:16.013Z,101128.31
2023-02-16T18:15:50.621Z,101121.24
2023-02-16T18:18:24.806Z,101122.39
2023-02-16T18:20:59.786Z,101125.66
2023-02-16T18:26:33.449Z,101120.98
2023-02-16T18:29:10.818Z,101121.77
2023-02-16T18:31:51.996Z,101127.30
2023-02-16T18:34:26.271Z,101120.02
2023-02-16T18:37:00.381Z,101120.33
2023-02-16T18:39:33.525Z,101112.41
2023-02-16T18:42:08.409Z,101110.67
2023-02-16T18:44:42.411Z,101110.74
2023-02-16T18:47:19.699Z,101107.81
2023-02-16T18:49:53.854Z,101115.30
2023-02-16T18:52:27.444Z,101110.90
2023-02-16T18:55:02.333Z,101115.16
2023-02-16T18:58:00.471Z,101113.39
2023-02-16T19:00:32.965Z,101107.10
2023-02-16T19:03:05.553Z,101105.67
2023-02-16T19:05:38.779Z,101109.19
2023-02-16T19:08:11.287Z,101106.27
2023-02-16T19:10:44.131Z,101111.84
2023-02-16T19:13:16.698Z,101110.45
2023-02-16T19:15:49.348Z,101112.91
2023-02-16T19:18:21.891Z,101109.54
2023-02-16T19:20:54.382Z,101109.27
2023-02-16T19:23:27.071Z,101103.05
2023-02-16T19:25:59.635Z,101092.88
2023-02-16T19:28:32.235Z,101093.70
2023-02-16T19:31:06.709Z,101111.00
2023-02-16T19:33:39.251Z,101111.63
2023-02-16T19:36:14.592Z,101114.48
2023-02-16T19:38:47.950Z,101112.61
2023-02-16T19:41:22.649Z,101112.59
2023-02-16T19:43:55.774Z,101109.59
2023-02-16T19:46:29.423Z,101108.05
2023-02-16T19:49:02.753Z,101109.45
2023-02-16T19:51:35.435Z,101109.91
2023-02-16T19:54:08.032Z,101108.34
2023-02-16T19:56:41.714Z,101106.15
2023-02-16T19:59:15.554Z,101107.20
2023-02-16T20:01:48.234Z,101101.23
2023-02-16T20:04:21.349Z,101097.17
2023-02-16T20:06:54.846Z,101096.00
2023-02-16T20:09:28.168Z,101101.74
2023-02-16T20:12:00.595Z,101092.95
2023-02-16T20:14:33.242Z,101092.55
2023-02-16T20:17:06.413Z,101094.66
2023-02-16T20:19:39.140Z,101096.71
2023-02-16T20:22:11.901Z,101088.59
2023-02-16T20:24:45.052Z,101099.51
2023-02-16T20:27:17.506Z,101101.56
2023-02-16T20:29:50.128Z,101103.87
2023-02-16T20:32:26.645Z,101104.48
2023-02-16T20:35:00.179Z,101098.27
2023-02-16T20:37:33.318Z,101099.67
2023-02-16T20:40:06.591Z,101101.67
2023-02-16T20:42:39.470Z,101101.95
2023-02-16T20:45:13.467Z,101098.05
2023-02-16T20:47:46.044Z,101102.41
2023-02-16T20:50:18.602Z,101104.36
2023-02-16T20:52:51.100Z,101103.42
2023-02-16T20:55:23.741Z,101103.10
2023-02-16T20:57:56.244Z,101101.70
2023-02-16T21:00:29.886Z,101105.11
2023-02-16T21:03:02.623Z,101103.03
2023-02-16T21:05:35.157Z,101106.13
2023-02-16T21:08:08.321Z,101105.95
2023-02-16T21:10:41.481Z,101107.96
2023-02-16T21:13:14.340Z,101108.48
2023-02-16T21:15:46.885Z,101104.80
2023-02-16T21:18:19.463Z,101105.90
2023-02-16T21:20:52.417Z,101098.11
2023-02-16T21:23:24.997Z,101089.95
2023-02-16T21:26:01.927Z,101088.52
2023-02-16T21:28:34.840Z,101089.30
2023-02-16T21:31:10.409Z,101085.07
2023-02-16T21:33:43.041Z,101081.61
2023-02-16T21:36:18.040Z,101075.83
2023-02-16T21:38:51.317Z,101078.66
2023-02-16T21:41:29.372Z,101068.90
2023-02-16T21:44:04.064Z,101065.59
2023-02-16T21:46:42.332Z,101057.85
2023-02-16T21:49:18.116Z,101039.78
2023-02-16T21:51:51.040Z,101040.52
2023-02-16T21:54:44.866Z,101056.27
2023-02-16T21:57:17.267Z,101052.83
2023-02-16T21:59:49.827Z,101055.13
2023-02-16T22:02:22.845Z,101057.64
2023-02-16T22:04:55.406Z,101053.48
2023-02-16T22:07:28.074Z,101052.80
2023-02-16T22:10:01.153Z,101047.70
2023-02-16T22:12:33.608Z,101032.90
2023-02-16T22:15:06.808Z,101043.28
2023-02-16T22:17:39.811Z,101040.94
2023-02-16T22:20:14.007Z,101037.10
2023-02-16T22:22:46.665Z,101035.51
2023-02-16T22:25:19.162Z,101033.92
2023-02-16T22:27:52.024Z,101033.84
2023-02-16T22:30:24.509Z,101028.71
2023-02-16T22:32:57.445Z,101013.97
2023-02-16T22:35:30.176Z,101027.67
2023-02-16T22:38:02.688Z,101031.08
2023-02-16T22:40:35.506Z,101028.98
2023-02-16T22:43:08.092Z,101033.34
2023-02-16T22:45:41.292Z,101028.05
2023-02-16T22:48:13.653Z,101022.77
2023-02-16T22:50:46.668Z,101016.05
2023-02-16T22:53:19.159Z,101015.13
2023-02-16T22:55:51.507Z,101015.20
2023-02-16T22:58:24.087Z,101014.73
2023-02-16T23:00:56.845Z,101015.55
2023-02-16T23:03:30.062Z,101009.80
2023-02-16T23:06:02.786Z,101006.20
2023-02-16T23:08:35.433Z,101002.91
2023-02-16T23:11:08.590Z,101000.21
2023-02-16T23:13:41.469Z,101003.80
2023-02-16T23:16:15.912Z,101002.86
2023-02-16T23:18:49.311Z,101008.08
2023-02-16T23:21:24.793Z,101004.77
2023-02-16T23:23:57.730Z,101003.80
2023-02-16T23:26:32.185Z,101009.33
2023-02-16T23:29:07.254Z,101010.83
2023-02-16T23:31:41.999Z,101010.52
2023-02-16T23:34:13.449Z,101013.40
2023-02-16T23:36:46.163Z,101002.16
2023-02-16T23:39:20.072Z,101011.22
2023-02-16T23:41:53.320Z,101011.94
2023-02-16T23:44:26.355Z,101016.58
2023-02-16T23:46:58.793Z,101020.30
2023-02-16T23:49:31.450Z,101021.21
2023-02-16T23:52:03.918Z,101020.52
2023-02-16T23:54:37.122Z,101015.28
2023-02-16T23:57:09.622Z,101009.61
2023-02-16T23:59:43.979Z,101012.57
